Timeline UpdatesTrip UpdatesNews PostsPvt PostsTravel TipsAdmin PostsConv PostsFollowed PostsChat RequestsBlog PostsPNR Posts

Disclaimer
Search
 
 
Sun Sep 21, 2014 13:36:43 ISTHomeTrainsΣChainsAtlasPNRForumGalleryNewsFAQTripsMembersLoginFeedback
No Recent News for this Train
Other Trains in the News **new
Latest...
Train No.16031 / 16032 Chennai Central – Jammutawi – Chennai Central Tri-weekly Express trains will be temporarily augmented by 1 Sleeper Class coach from 02.02.2014 to 13.03.2014 ex. Chennai Central and from 04.02.2014 to 15.03.2014 ex. Jammutawi.
Wed Nov 27, 2013 (07:28PM)
⇐ Return Journey: Train# 16032

16031/Andaman Express

Time-Table HAS CHANGED.
Sep 03 (6:24PM)
Change Departure Station:
Change Arrival Station:
Post a Train Travel TipPost a Train Travel Tip **new
Post a Comment/Question/Picture/VideoPost a Comment/Question/Picture/Video
Inaugural Run
Sun May 01, 1988
Pantry/Catering
✕ NO Pantry Car
✕ NO Catering
RSA - Rake Sharing
16031/16032/16093/16094/12755/12756 (renumbered 22613/22614) has RSA.
Rake/Coach Composition
LOCO-HCPV-HCPV-HCPV-HCPV-SLR-UR-UR-UR-S7-S6-S5-S4-S3-S2-S1-B1-UR-UR-SLR
Loco
WAP4 ED MAS to NDLS ; TKD WDM3A/ WDP4B/4D NDLS to...
Read more...
JAT
News    PNR    Forum    Time-Table    Availability    Fare Chart    Map    Arr/Dep History    Trips    Gallery    ΣChains    X/O    Timeline    
Travel Time: 32h 52m    42 halts    Distance: 1769 km    Avg Speed: 53 km/hr
Type: Mail/Express
Zone: SR/Southern
Departs @ 05:15
Platform# 2
S  WT  
Chennai Central/MAS 
Arrives @ 14:07 +1 night
Platform# 2
 M  TF 
Babina/BAB 

42 halts. 254 intermediate Stations between Chennai Central and Babina

Show ALL intermediate Stations  Show Old Time-Table

#CodeStation NameX/OArrivesAvgDepartsAvgHaltPFDay#KmSpeedElevZoneAddress
1MASChennai Central (12)»  -05:15-210.0679mSRChennai 600003, Tamil Nadu
2SPESullurupeta (3)  06:29-06:30-1m1182.4689mSR524121., Andhra Pradesh
3NYPNayadupeta (3)X  06:54-06:55-1m11109.72133mSRNayudupeta, Andhra Pradesh
4GDRGudur Junction (3)X  08:15-08:17-2m31137.49219mSCRGudur, Andhra Pradesh
5NLRNellore (4)  08:42-08:43-1m21175.87921mSCRNellore, Andhra Pradesh
6BTTRBitragunta (2)  09:09-09:10-1m11210.25815mSCRBitragunta, Andhra Pradesh
7KVZKavali (4)  09:27-09:28-1m31226.69121mSCRKavali, Andhra Pradesh
8SKMSingarayakonda (2)X  09:53-09:54-1m11264.45526mSCRSingarayakonda, Andhra Pradesh
9OGLOngole (3)  10:25-10:26-1m11292.68712mSCROngole, Andhra Pradesh
10CLXChirala (4)X  11:00-11:01-1m21342.0758mSCRChirala, Andhra Pradesh
11BPPBapatla (3)  11:13-11:14-1m31357.05410mSCRBapatla, Andhra Pradesh
12NDONidubrolu (3)X  11:37-11:38-1m--1377.6329mSCRNidubrolu, Andhra Pradesh
13TELTenali Junction (5)  12:19-12:20-1m41399.65016mSCRTel: 08644-227834, Andhra Pradesh
14NGNTNew Guntur (1)  12:50-12:52-2m11424.61830mSCRGuntur City, Andhra Pradesh
15BZAVijayawada Junction (10)X  14:30-14:50-20m61454.76424mSCRVijayawada 520001, Andhra Pradesh
16MDRMadhira (2)X  15:42-15:43-1m21510.312861mSCRKhammam Dist., Telangana
17KMTKhammam (2)X  16:04-16:06-2m21555.146118mSCRKhammam 507001, Telangana
18DKJDornakal Junction (3)X  16:36-16:37-1m11578.181153mSCRWarangal District, Telangana
19MABDMahbubabad (2)  16:55-16:56-1m21602.590200mSCRWarangal Dist., Telangana
20KDMKesamudram (2)X  17:06-17:07-1m21617.456223mSCRWarangal Dist., Telangana
21WLWarangal (3)  17:55-18:00-5m21662.698271mSCRWarangal., Telangana
22JMKTJamikunta (2)  18:27-18:28-1m11706.891236mSCRKarimnagar Dist., Telangana
23PDPLPeddapalli Junction (2)  18:54-18:55-1m11746.281228mSCRKarimnagar Dist., Telangana
24RDMRamagundam (3)  19:08-19:09-1m11763.875170mSCRKarimnagar Dist. Ph : 08728 - 255237, Telangana
25MCIManchiryal (3)X  19:20-19:21-1m11777.540159mSCRAdilabad Dist., Telangana
26BPABellampalli (3)  19:51-19:52-1m11797.4105205mSCRTel:.08735 223298, Telangana
27SKZRSirpur Kaghaznagar (3)  20:14-20:15-1m11835.829181mSCRAdilabad Dist., Telangana
28BPQBalharshah Junction (5)XO  22:40-22:50-10m41905.646188mCRBallarpur. Ph : 07172 - 240341, Maharashtra
29CDChandrapur Maharashtra (3)  23:08-23:09-1m--1919.468194mCRChandrapur 442401, Maharashtra
30MJRIMajri Junction (3)X  23:39-23:40-1m--1953.362198mCRDist. Chandrapur, Maharashtra
31WRRWarora (2)  23:52-23:53-1m--1965.876214mCRWarora, Maharashtra
32HGTHinganghat (3)  00:24-00:25-1m--21004.845228mCRHinganghat, Maharashtra
33SEGMSewagram Junction (5)  01:09-01:10-1m--21037.954279mCRWardha, Maharashtra
34NGPNagpur Junction (8)  02:35-02:45-10m121114.279314mCRNagpur 440001, Maharashtra
35PARPandhurna (2)  04:04-04:05-1m--21218.556481mCRDistt: Chhindwara, Madhya Pradesh
36MTYMultai (2)X  04:49-04:50-1m--21259.355762mCRMultai, Madhya Pradesh
37AMLAAmla Junction (5)X  05:15-05:17-2m--21282.181733mCRAmla Distt. Betul, Madhya Pradesh
38BZUBetul (3)X  05:34-05:35-1m--21305.055644mCRBetul, Madhya Pradesh
39GDYAGhoradongri (3)X  06:14-06:15-1m--21340.938 CRBetul, Madhya Pradesh
40ETItarsi Junction (7)XO  08:05-08:10-5m--21411.352329mWCRItarsi 461111, Madhya Pradesh
41BPLBhopal Junction (6)  09:55-10:00-5m221503.185497mWCRBhopal, Madhya Pradesh
42SCISanchi (2) new halt!!  10:31-10:33-2m--21547.248428mWCRRaisen, Madhya Pradesh
43BINABina Junction (5)O  12:30-12:35-5m321641.683414mWCRJn Pt - KATNI/GUNA/ BPL/JHS, Madhya Pradesh
44BABBabina (3)•  14:05 14:07-14:07 14:09-2m221769.343285mNCRBabina, Uttar Pradesh
45JHSJhansi Junction (7)X  14:45-14:53 14:55-8 10m--21794.873259mNCRJhansi, Uttar Pradesh
46GWLGwalior Junction (4)  16:15-16:20-5m321892.693214mNCRGwalior, Madhya Pradesh
47MRAMorena (3)X  16:45-16:47-2m221931.149176mNCRMorena, Madhya Pradesh
48AGCAgra Cantt. (6)X  18:25-18:35 18:33-10 8m222010.639174mNCRAgra, Uttar Pradesh
49MTJMathura Junction (10)  19:55-20:00-5m222064.268179mNCRMathura, Uttar Pradesh
50FDBFaridabad (4)X  21:40-21:41-1m222177.444206mNRold Faridabad, Haryana
51TKDTuglakabad (4)  21:53 21:56-21:55 21:58-2m--22188.545213mNRNear Tughlakabad Metro Station, Delhi NCT
52OKAOkhla (4)  22:03 22:06-22:05 22:07-2 1m--22194.528221mNRIshwar Nagar Mathura Road, Delhi NCT
53NZMDelhi Hazrat Nizamuddin (7)X  22:20 22:15-22:50 22:35-30 20m322198.218209mNRNew Delhi 110013, Delhi NCT
54NDLSNew Delhi (16)  23:15 23:00-00:10-55 70m522205.620215mNRNew Delhi, Delhi NCT
55SSBShakur Basti  00:43-00:44-1m--32216.470216mNRPitampura, Delhi NCT
56BGZBahadurgarh  01:01-01:02-1m--32236.473220mNRBahadurgarh, Haryana
57ROKRohtak Junction (3)  01:35-01:40 01:37-5 2m--32276.659220mNRRohtak, Haryana
58JINDJind Junction (3)  02:35-02:40-5m--32333.778222mNR126102., Haryana
59NRWNarwana Junction (4)  03:06-03:07-1m--32367.673235mNRWay to Narwana, Haryana
60TUNTohana (2)  03:28-03:29-1m--32393.124232mNRTohana, Haryana
61JHLJakhal JunctionX  04:05 04:00-04:10 04:05-5m--32405.360225mNRJakhal, Haryana
62LHALehra Gaga (1)  04:22-04:24-2m132422.371227mNRSangrur, Punjab
63SFMSunam (1)  04:42-04:44-2m132443.664235mNRSunam, Punjab
64SAGSangrur (2)X  04:56-04:58-2m232456.430239mNRSangrur, Punjab
65DUIDhuri Junction (4)  05:30-05:35-5m--32472.478248mNRDhuri, Punjab
66METMalerkotla (2)  05:48-05:50-2m232489.266248mNRMalerkotla., Punjab
67AHHAhmadgarh (1)X  06:08-06:09 06:10-1 2m132509.126256mNRAhmedgarh, Punjab
68QRPKila Raipur (1)  06:26 06:28-06:28 06:30-2m132516.736262mNRDelhon Pakhowal Rd, Punjab
69LDHLudhiana Junction (7)X  06:50 07:00-07:00 07:10-10m632534.560246mNRLudhiana 141001, Punjab
70PHRPhillaur Junction (3)X  07:23-07:25-2m232547.675246mNRPhillaur, Punjab
71PGWPhagwara Junction (3)X  07:43-07:45-2m232570.165245mNRPhagwara, Punjab
72JRCJalandhar Cantt. Junction (3)  08:00-08:05-5m332586.463239mNRNear Rama Mandi, Punjab
73TDOTanda Urmar (3)  08:45-08:47-2m132628.766239mNRUrmar Tanda, Punjab
74DZADasuya (2)  09:01-09:03-2m232644.156251mNRDasuya distt. hoshiarpur, Punjab
75MEXMukerian (3)X  09:19-09:21-2m232659.135257mNRMukerian distt. hosiharpur, Punjab
76PTKCPathankot Cantt (3)X  10:30-10:35-5m232698.932328mNRPathankot By Pass Ph:0186-2251594, Punjab
77KTHUKathua (2)X  11:19-11:21-2m132722.162396mNRdistt. kathua, Jammu and Kashmir
78SMBXSamba (2)  12:03-12:05-2m232765.730365mNRDist. Samba, Jammu and Kashmir
79JATJammu Tawi (3)  13:10--332798.4-337mNRJammu 180002, Jammu and Kashmir
Scroll to Top
Scroll to Bottom